WIZ880 EDDN-EDDC
Flight info
| Callsign | WIZ880 |
|---|---|
| Flight time | 0h 34m |
| Altitude | 19000 |
| Route | ERETO1G ERETO Z715 ABKIS Q240 DRN |
| Aircraft | A20N/M-SDE2E3FGHIRWXY/LB1 |
Departure
| Time | 2026-05-08 12:09 |
|---|---|
| Airport | Nuremberg Airport (EDDN) |
Arrival
| Time | 2026-05-08 12:43 |
|---|---|
| Airport | Dresden Airport (EDDC) |
| Time | Latitude | Longitude | Altitude | Speed | Heading |
|---|---|---|---|---|---|
| 2026-05-08 11:46 | 49.49521 | 11.07725 | 1030 ft | 0 kts | 188° |
| 2026-05-08 12:00 | 49.49531 | 11.07727 | 1028 ft | 3 kts | 187° |
| 2026-05-08 12:01 | 49.49549 | 11.07730 | 1031 ft | 3 kts | 187° |
| 2026-05-08 12:01 | 49.49566 | 11.07731 | 1030 ft | 3 kts | 162° |
| 2026-05-08 12:01 | 49.49583 | 11.07723 | 1031 ft | 2 kts | 146° |
| 2026-05-08 12:01 | 49.49591 | 11.07707 | 1032 ft | 0 kts | 95° |
| 2026-05-08 12:04 | 49.49575 | 11.07889 | 1033 ft | 18 kts | 98° |
| 2026-05-08 12:05 | 49.49557 | 11.08114 | 1033 ft | 23 kts | 98° |
| 2026-05-08 12:05 | 49.49550 | 11.08334 | 1035 ft | 10 kts | 51° |
| 2026-05-08 12:05 | 49.49600 | 11.08396 | 1034 ft | 11 kts | 65° |
| 2026-05-08 12:05 | 49.49608 | 11.08519 | 1035 ft | 13 kts | 89° |
| 2026-05-08 12:06 | 49.49592 | 11.08676 | 1037 ft | 19 kts | 99° |
| 2026-05-08 12:06 | 49.49572 | 11.08903 | 1040 ft | 24 kts | 96° |
| 2026-05-08 12:06 | 49.49547 | 11.09149 | 1041 ft | 25 kts | 101° |
| 2026-05-08 12:06 | 49.49533 | 11.09296 | 1044 ft | 0 kts | 96° |
| 2026-05-08 12:07 | 49.49533 | 11.09306 | 1044 ft | 4 kts | 93° |
| 2026-05-08 12:07 | 49.49552 | 11.09397 | 1045 ft | 15 kts | 53° |
| 2026-05-08 12:07 | 49.49595 | 11.09487 | 1045 ft | 5 kts | 51° |
| 2026-05-08 12:07 | 49.49666 | 11.09562 | 1048 ft | 16 kts | 351° |
| 2026-05-08 12:08 | 49.49704 | 11.09479 | 1046 ft | 5 kts | 279° |
| 2026-05-08 12:08 | 49.49743 | 11.09107 | 1043 ft | 73 kts | 277° |
| 2026-05-08 12:08 | 49.49858 | 11.07918 | 1051 ft | 147 kts | 279° |
| 2026-05-08 12:08 | 49.50026 | 11.06256 | 1568 ft | 168 kts | 280° |
| 2026-05-08 12:09 | 49.50227 | 11.04270 | 1776 ft | 205 kts | 279° |
| 2026-05-08 12:09 | 49.50439 | 11.02089 | 2228 ft | 206 kts | 278° |
| 2026-05-08 12:09 | 49.50658 | 10.99820 | 2384 ft | 220 kts | 278° |
| 2026-05-08 12:09 | 49.50894 | 10.97386 | 2858 ft | 244 kts | 278° |
| 2026-05-08 12:10 | 49.51161 | 10.94751 | 3748 ft | 253 kts | 282° |
| 2026-05-08 12:10 | 49.51949 | 10.92335 | 4760 ft | 259 kts | 314° |
| 2026-05-08 12:10 | 49.53536 | 10.91010 | 5735 ft | 266 kts | 348° |
| 2026-05-08 12:10 | 49.55391 | 10.91120 | 6513 ft | 272 kts | 10° |
| 2026-05-08 12:11 | 49.57265 | 10.91675 | 6878 ft | 275 kts | 9° |
| 2026-05-08 12:11 | 49.59158 | 10.92118 | 6966 ft | 276 kts | 6° |
| 2026-05-08 12:11 | 49.61076 | 10.92407 | 6967 ft | 277 kts | 4° |
| 2026-05-08 12:11 | 49.63001 | 10.92589 | 6977 ft | 277 kts | 2° |
| 2026-05-08 12:12 | 49.64930 | 10.92711 | 6976 ft | 277 kts | 1° |
| 2026-05-08 12:12 | 49.66850 | 10.92799 | 6974 ft | 277 kts | 0° |
| 2026-05-08 12:12 | 49.68779 | 10.92867 | 7029 ft | 279 kts | 0° |
| 2026-05-08 12:12 | 49.70695 | 10.93347 | 7585 ft | 284 kts | 25° |
| 2026-05-08 12:13 | 49.72293 | 10.95124 | 8625 ft | 284 kts | 41° |
| 2026-05-08 12:13 | 49.73747 | 10.97211 | 9632 ft | 287 kts | 42° |
| 2026-05-08 12:13 | 49.75231 | 10.99345 | 10422 ft | 298 kts | 41° |
| 2026-05-08 12:13 | 49.76836 | 11.01581 | 10817 ft | 322 kts | 40° |
| 2026-05-08 12:14 | 49.78559 | 11.03923 | 11406 ft | 336 kts | 40° |
| 2026-05-08 12:14 | 49.80321 | 11.06292 | 12215 ft | 343 kts | 40° |
| 2026-05-08 12:14 | 49.82159 | 11.08750 | 13135 ft | 348 kts | 40° |
| 2026-05-08 12:14 | 49.84006 | 11.11136 | 14020 ft | 353 kts | 40° |
| 2026-05-08 12:15 | 49.85543 | 11.14125 | 14789 ft | 360 kts | 63° |
| 2026-05-08 12:15 | 49.86522 | 11.17726 | 15565 ft | 365 kts | 68° |
| 2026-05-08 12:15 | 49.87456 | 11.21422 | 16345 ft | 371 kts | 67° |
| 2026-05-08 12:15 | 49.88460 | 11.25137 | 17147 ft | 376 kts | 66° |
| 2026-05-08 12:16 | 49.89526 | 11.28864 | 17908 ft | 380 kts | 65° |
| 2026-05-08 12:16 | 49.90636 | 11.32617 | 18575 ft | 385 kts | 64° |
| 2026-05-08 12:16 | 49.91772 | 11.36387 | 18900 ft | 387 kts | 64° |
| 2026-05-08 12:16 | 49.92897 | 11.40190 | 18974 ft | 388 kts | 65° |
| 2026-05-08 12:17 | 49.94275 | 11.43768 | 18984 ft | 387 kts | 50° |
| 2026-05-08 12:17 | 49.95461 | 11.45851 | 18984 ft | 387 kts | 44° |
| 2026-05-08 12:17 | 49.98057 | 11.49647 | 18983 ft | 387 kts | 40° |
| 2026-05-08 12:17 | 50.00073 | 11.52414 | 18984 ft | 387 kts | 40° |
| 2026-05-08 12:18 | 50.02075 | 11.55214 | 18983 ft | 387 kts | 41° |
| 2026-05-08 12:18 | 50.03384 | 11.57103 | 18988 ft | 387 kts | 41° |
| 2026-05-08 12:18 | 50.05336 | 11.60009 | 18987 ft | 387 kts | 43° |
| 2026-05-08 12:18 | 50.07250 | 11.62955 | 18995 ft | 387 kts | 44° |
| 2026-05-08 12:19 | 50.09126 | 11.65974 | 18993 ft | 387 kts | 45° |
| 2026-05-08 12:19 | 50.10968 | 11.69025 | 18990 ft | 386 kts | 45° |
| 2026-05-08 12:19 | 50.12797 | 11.72099 | 18991 ft | 386 kts | 45° |
| 2026-05-08 12:19 | 50.14619 | 11.75170 | 18992 ft | 386 kts | 46° |
| 2026-05-08 12:20 | 50.16449 | 11.78249 | 18993 ft | 386 kts | 46° |
| 2026-05-08 12:20 | 50.18264 | 11.81339 | 18991 ft | 387 kts | 49° |
| 2026-05-08 12:20 | 50.19873 | 11.84639 | 18994 ft | 387 kts | 54° |
| 2026-05-08 12:20 | 50.21355 | 11.88153 | 18994 ft | 388 kts | 57° |
| 2026-05-08 12:21 | 50.22756 | 11.91746 | 18993 ft | 388 kts | 58° |
| 2026-05-08 12:21 | 50.24135 | 11.95389 | 18993 ft | 388 kts | 58° |
| 2026-05-08 12:21 | 50.25503 | 11.99018 | 18993 ft | 388 kts | 58° |
| 2026-05-08 12:21 | 50.26905 | 12.02623 | 18995 ft | 387 kts | 56° |
| 2026-05-08 12:22 | 50.28375 | 12.06149 | 18993 ft | 387 kts | 55° |
| 2026-05-08 12:22 | 50.29892 | 12.09637 | 18994 ft | 387 kts | 54° |
| 2026-05-08 12:22 | 50.31425 | 12.13099 | 18996 ft | 387 kts | 54° |
| 2026-05-08 12:22 | 50.32966 | 12.16567 | 18995 ft | 387 kts | 54° |
| 2026-05-08 12:23 | 50.34462 | 12.20065 | 19001 ft | 388 kts | 57° |
| 2026-05-08 12:23 | 50.35839 | 12.23723 | 19002 ft | 388 kts | 60° |
| 2026-05-08 12:23 | 50.37113 | 12.27396 | 18998 ft | 388 kts | 61° |
| 2026-05-08 12:23 | 50.38359 | 12.31141 | 18999 ft | 388 kts | 62° |
| 2026-05-08 12:24 | 50.39610 | 12.34960 | 19001 ft | 388 kts | 62° |
| 2026-05-08 12:24 | 50.40842 | 12.38721 | 19005 ft | 388 kts | 62° |
| 2026-05-08 12:24 | 50.42082 | 12.42486 | 19005 ft | 388 kts | 62° |
| 2026-05-08 12:24 | 50.43328 | 12.46246 | 19003 ft | 388 kts | 62° |
| 2026-05-08 12:25 | 50.44563 | 12.49960 | 18999 ft | 388 kts | 62° |
| 2026-05-08 12:25 | 50.45810 | 12.53703 | 18998 ft | 383 kts | 61° |
| 2026-05-08 12:25 | 50.47017 | 12.57328 | 18988 ft | 363 kts | 61° |
| 2026-05-08 12:25 | 50.48145 | 12.60721 | 18988 ft | 339 kts | 62° |
| 2026-05-08 12:26 | 50.49206 | 12.63895 | 18987 ft | 317 kts | 60° |
| 2026-05-08 12:26 | 50.50221 | 12.66876 | 18975 ft | 302 kts | 59° |
| 2026-05-08 12:26 | 50.51219 | 12.69715 | 18879 ft | 289 kts | 59° |
| 2026-05-08 12:26 | 50.52191 | 12.72446 | 18480 ft | 294 kts | 58° |
| 2026-05-08 12:27 | 50.53271 | 12.75287 | 17790 ft | 304 kts | 56° |
| 2026-05-08 12:27 | 50.54368 | 12.78140 | 17101 ft | 313 kts | 59° |
| 2026-05-08 12:27 | 50.55406 | 12.81189 | 16319 ft | 319 kts | 61° |
| 2026-05-08 12:27 | 50.56411 | 12.84335 | 15385 ft | 324 kts | 62° |
| 2026-05-08 12:28 | 50.57417 | 12.87538 | 14502 ft | 328 kts | 62° |
| 2026-05-08 12:28 | 50.58421 | 12.90781 | 13589 ft | 331 kts | 62° |
| 2026-05-08 12:28 | 50.59421 | 12.94061 | 12601 ft | 332 kts | 63° |
| 2026-05-08 12:28 | 50.60435 | 12.97330 | 11534 ft | 334 kts | 60° |
| 2026-05-08 12:29 | 50.61567 | 13.00563 | 10531 ft | 336 kts | 57° |
| 2026-05-08 12:29 | 50.62853 | 13.03602 | 9700 ft | 329 kts | 51° |
| 2026-05-08 12:29 | 50.64274 | 13.06368 | 8979 ft | 318 kts | 48° |
| 2026-05-08 12:29 | 50.65694 | 13.08925 | 8507 ft | 302 kts | 45° |
| 2026-05-08 12:30 | 50.67143 | 13.11229 | 7961 ft | 291 kts | 42° |
| 2026-05-08 12:30 | 50.68606 | 13.13376 | 7397 ft | 283 kts | 40° |
| 2026-05-08 12:30 | 50.70082 | 13.15377 | 6864 ft | 278 kts | 38° |
| 2026-05-08 12:30 | 50.71572 | 13.17248 | 6415 ft | 275 kts | 37° |
| 2026-05-08 12:31 | 50.73006 | 13.19117 | 6264 ft | 257 kts | 43° |
| 2026-05-08 12:31 | 50.74227 | 13.20951 | 6369 ft | 229 kts | 42° |
| 2026-05-08 12:31 | 50.75333 | 13.22654 | 6109 ft | 217 kts | 43° |
| 2026-05-08 12:31 | 50.76392 | 13.24288 | 5812 ft | 209 kts | 42° |
| 2026-05-08 12:32 | 50.77394 | 13.25972 | 5432 ft | 212 kts | 45° |
| 2026-05-08 12:32 | 50.78452 | 13.27606 | 4953 ft | 212 kts | 39° |
| 2026-05-08 12:32 | 50.79534 | 13.29109 | 4686 ft | 201 kts | 39° |
| 2026-05-08 12:32 | 50.80560 | 13.30516 | 4482 ft | 191 kts | 40° |
| 2026-05-08 12:33 | 50.81515 | 13.31893 | 4285 ft | 181 kts | 41° |
| 2026-05-08 12:33 | 50.82424 | 13.33229 | 4036 ft | 175 kts | 41° |
| 2026-05-08 12:33 | 50.83279 | 13.34492 | 3931 ft | 161 kts | 40° |
| 2026-05-08 12:33 | 50.84104 | 13.35595 | 3788 ft | 148 kts | 37° |
| 2026-05-08 12:34 | 50.84860 | 13.36604 | 3633 ft | 149 kts | 42° |
| 2026-05-08 12:34 | 50.85670 | 13.37770 | 3785 ft | 153 kts | 39° |
| 2026-05-08 12:34 | 50.86456 | 13.38803 | 3920 ft | 146 kts | 37° |
| 2026-05-08 12:34 | 50.87261 | 13.39817 | 3995 ft | 151 kts | 38° |
| 2026-05-08 12:35 | 50.88087 | 13.40861 | 4072 ft | 156 kts | 37° |
| 2026-05-08 12:35 | 50.88986 | 13.41934 | 4212 ft | 161 kts | 34° |
| 2026-05-08 12:35 | 50.89857 | 13.43008 | 4376 ft | 161 kts | 38° |
| 2026-05-08 12:35 | 50.90731 | 13.44240 | 4339 ft | 167 kts | 39° |
| 2026-05-08 12:36 | 50.91564 | 13.45283 | 4449 ft | 144 kts | 43° |
| 2026-05-08 12:36 | 50.92244 | 13.46394 | 4408 ft | 137 kts | 46° |
| 2026-05-08 12:36 | 50.92859 | 13.47560 | 4196 ft | 138 kts | 47° |
| 2026-05-08 12:36 | 50.93491 | 13.48652 | 4061 ft | 134 kts | 47° |
| 2026-05-08 12:37 | 50.94168 | 13.49868 | 4143 ft | 148 kts | 45° |
| 2026-05-08 12:37 | 50.94880 | 13.51073 | 4269 ft | 151 kts | 44° |
| 2026-05-08 12:37 | 50.95651 | 13.52252 | 4299 ft | 159 kts | 44° |
| 2026-05-08 12:37 | 50.96466 | 13.53416 | 4390 ft | 149 kts | 39° |
| 2026-05-08 12:38 | 50.97227 | 13.54477 | 4308 ft | 150 kts | 40° |
| 2026-05-08 12:38 | 50.98013 | 13.55506 | 4118 ft | 146 kts | 40° |
| 2026-05-08 12:38 | 50.98790 | 13.56608 | 3936 ft | 151 kts | 40° |
| 2026-05-08 12:38 | 50.99578 | 13.57785 | 3623 ft | 161 kts | 45° |
| 2026-05-08 12:39 | 51.00324 | 13.59218 | 3534 ft | 182 kts | 53° |
| 2026-05-08 12:39 | 51.01093 | 13.60816 | 3495 ft | 175 kts | 49° |
| 2026-05-08 12:39 | 51.01824 | 13.62316 | 3200 ft | 168 kts | 49° |
| 2026-05-08 12:39 | 51.02677 | 13.63557 | 2897 ft | 164 kts | 39° |
| 2026-05-08 12:40 | 51.03541 | 13.64656 | 2716 ft | 155 kts | 36° |
| 2026-05-08 12:40 | 51.04397 | 13.65637 | 2528 ft | 148 kts | 34° |
| 2026-05-08 12:40 | 51.05214 | 13.66548 | 2416 ft | 137 kts | 34° |
| 2026-05-08 12:40 | 51.05963 | 13.67367 | 2344 ft | 125 kts | 30° |
| 2026-05-08 12:41 | 51.06742 | 13.67971 | 2216 ft | 127 kts | 26° |
| 2026-05-08 12:41 | 51.07525 | 13.68692 | 2034 ft | 133 kts | 31° |
| 2026-05-08 12:41 | 51.08269 | 13.69568 | 1925 ft | 131 kts | 43° |
| 2026-05-08 12:41 | 51.08926 | 13.70589 | 1804 ft | 133 kts | 41° |
| 2026-05-08 12:42 | 51.09643 | 13.71556 | 1641 ft | 137 kts | 39° |
| 2026-05-08 12:42 | 51.10347 | 13.72535 | 1462 ft | 132 kts | 41° |
| 2026-05-08 12:42 | 51.11035 | 13.73469 | 1264 ft | 125 kts | 41° |
| 2026-05-08 12:42 | 51.11664 | 13.74348 | 1024 ft | 118 kts | 41° |
| 2026-05-08 12:43 | 51.12423 | 13.75400 | 872 ft | 151 kts | 40° |
| 2026-05-08 12:43 | 51.13184 | 13.76436 | 766 ft | 136 kts | 39° |
| 2026-05-08 12:43 | 51.13705 | 13.77149 | 734 ft | 51 kts | 49° |
| 2026-05-08 12:43 | 51.13884 | 13.77453 | 728 ft | 27 kts | 43° |
| 2026-05-08 12:44 | 51.13899 | 13.77512 | 728 ft | 3 kts | 133° |
| 2026-05-08 12:44 | 51.13875 | 13.77557 | 727 ft | 8 kts | 128° |
| 2026-05-08 12:44 | 51.13869 | 13.77569 | 726 ft | 2 kts | 129° |
| 2026-05-08 12:44 | 51.13832 | 13.77645 | 726 ft | 13 kts | 135° |
| 2026-05-08 12:45 | 51.13757 | 13.77694 | 721 ft | 11 kts | 195° |
| 2026-05-08 12:45 | 51.13680 | 13.77618 | 725 ft | 15 kts | 222° |
| 2026-05-08 12:45 | 51.13594 | 13.77496 | 727 ft | 16 kts | 220° |
| 2026-05-08 12:45 | 51.13529 | 13.77413 | 730 ft | 13 kts | 218° |
| 2026-05-08 12:46 | 51.13458 | 13.77312 | 731 ft | 15 kts | 222° |
| 2026-05-08 12:46 | 51.13368 | 13.77182 | 732 ft | 19 kts | 222° |
| 2026-05-08 12:46 | 51.13295 | 13.77080 | 737 ft | 7 kts | 215° |
| 2026-05-08 12:46 | 51.13221 | 13.76995 | 740 ft | 20 kts | 217° |
| 2026-05-08 12:47 | 51.13171 | 13.76934 | 743 ft | 21 kts | 220° |
| 2026-05-08 12:47 | 51.13033 | 13.76754 | 747 ft | 14 kts | 219° |
| 2026-05-08 12:47 | 51.12971 | 13.76788 | 749 ft | 2 kts | 134° |
| 2026-05-08 12:47 | 51.12965 | 13.76798 | 750 ft | 0 kts | 131° |
| 2026-05-08 12:48 | 51.12966 | 13.76796 | 750 ft | 1 kts | 132° |
| 2026-05-08 12:48 | 51.12976 | 13.76778 | 750 ft | 3 kts | 128° |
| 2026-05-08 12:48 | 51.12981 | 13.76768 | 750 ft | 0 kts | 126° |